Time;durP1;ratioP1;P1;durP2;ratioP2;P2;SDS_P1;SDS_P2;PMS_P1;PMS_P2;Temp;Humidity;BMP_temperature;BMP_pressure;BME280_temperature;BME280_humidity;BME280_pressure;Samples;Min_cycle;Max_cycle;Signal;HPM_P1;HPM_P2
2021/05/12 00:00:11;;;;;;;17.30;12.93;;;15.50;76.90;;;;;;5037397;28;20494;-90
2021/05/12 00:02:37;;;;;;;22.08;12.15;;;15.50;77.20;;;;;;5043585;28;20025;-92
2021/05/12 00:05:06;;;;;;;18.85;13.18;;;15.50;77.20;;;;;;5061547;28;20041;-92
2021/05/12 00:07:32;;;;;;;23.77;14.00;;;15.40;77.40;;;;;;5056168;28;20040;-92
2021/05/12 00:09:57;;;;;;;20.13;12.80;;;15.40;77.50;;;;;;5038281;28;20036;-94
2021/05/12 00:12:23;;;;;;;23.33;14.80;;;15.40;77.70;;;;;;5053016;28;20021;-93
2021/05/12 00:14:50;;;;;;;22.23;14.90;;;15.40;77.80;;;;;;5058984;28;20033;-90
2021/05/12 00:17:19;;;;;;;21.00;17.38;;;15.40;77.90;;;;;;5056095;28;20482;-92
2021/05/12 00:19:53;;;;;;;18.27;14.18;;;15.30;78.10;;;;;;5043647;28;20029;-91
2021/05/12 00:25:11;;;;;;;22.52;14.23;;;15.30;78.70;;;;;;5022792;28;20109;-92
2021/05/12 00:27:37;;;;;;;25.88;13.73;;;15.30;78.80;;;;;;5038052;28;20084;-92
2021/05/12 00:30:07;;;;;;;26.30;14.43;;;15.30;78.90;;;;;;5035308;28;20025;-92
2021/05/12 00:32:32;;;;;;;18.48;13.30;;;15.20;78.90;;;;;;5055160;28;20025;-91
2021/05/12 00:34:58;;;;;;;21.58;13.95;;;15.20;79.10;;;;;;5064920;28;20025;-92
2021/05/12 00:37:24;;;;;;;21.80;12.85;;;15.20;79.20;;;;;;5070750;28;20025;-90
2021/05/12 00:39:50;;;;;;;22.23;13.38;;;15.20;79.30;;;;;;5059509;28;20398;-92
2021/05/12 00:42:15;;;;;;;19.75;13.35;;;15.10;79.60;;;;;;5048010;28;20542;-93
2021/05/12 00:44:41;;;;;;;19.02;12.85;;;15.10;79.70;;;;;;5057461;28;20028;-90
2021/05/12 00:47:07;;;;;;;20.20;13.13;;;15.10;80.00;;;;;;5057224;28;20029;-91
2021/05/12 00:49:34;;;;;;;17.48;12.75;;;15.10;80.10;;;;;;5056985;28;20021;-92
2021/05/12 00:52:01;;;;;;;21.63;12.88;;;15.10;80.40;;;;;;5024668;28;20021;-91
2021/05/12 00:54:27;;;;;;;19.73;13.40;;;15.10;80.60;;;;;;5039689;28;20033;-88
2021/05/12 00:56:53;;;;;;;16.80;13.93;;;15.00;80.60;;;;;;5064226;28;20028;-89
2021/05/12 00:59:19;;;;;;;20.70;13.52;;;15.00;80.90;;;;;;5070267;28;20040;-89
2021/05/12 01:01:45;;;;;;;18.35;12.05;;;15.00;81.10;;;;;;5052699;28;20033;-91
2021/05/12 01:04:11;;;;;;;16.60;13.93;;;15.00;81.20;;;;;;5059378;28;20025;-93
2021/05/12 01:06:39;;;;;;;21.20;14.48;;;14.90;81.40;;;;;;5055441;28;20047;-92
2021/05/12 01:09:09;;;;;;;16.00;13.10;;;14.90;81.50;;;;;;5056480;28;20064;-92
2021/05/12 01:11:36;;;;;;;21.90;13.70;;;14.90;81.60;;;;;;5057175;28;20036;-92
2021/05/12 01:14:02;;;;;;;17.40;13.77;;;14.90;81.80;;;;;;5065778;28;20043;-91
2021/05/12 01:16:28;;;;;;;21.40;13.77;;;14.80;82.00;;;;;;5075758;28;20097;-92
2021/05/12 01:18:54;;;;;;;21.20;14.63;;;14.80;82.00;;;;;;5070787;28;20045;-92
2021/05/12 01:21:20;;;;;;;18.70;14.27;;;14.80;82.10;;;;;;5058300;28;20434;-91
2021/05/12 01:23:49;;;;;;;18.27;13.68;;;14.80;82.20;;;;;;5061450;28;20025;-89
2021/05/12 01:26:19;;;;;;;16.83;12.93;;;14.70;82.20;;;;;;5049611;28;20076;-91
2021/05/12 01:28:49;;;;;;;18.17;13.38;;;14.80;82.40;;;;;;5056950;28;20032;-91
2021/05/12 01:31:43;;;;;;;19.83;13.63;;;14.70;82.60;;;;;;5057147;28;20036;-92
2021/05/12 01:34:17;;;;;;;20.85;13.57;;;14.70;82.40;;;;;;5071844;28;20037;-93
2021/05/12 01:36:44;;;;;;;15.60;12.10;;;14.60;82.30;;;;;;5073376;28;20025;-92
2021/05/12 01:39:14;;;;;;;18.40;12.63;;;14.60;82.30;;;;;;5058871;28;20104;-95
2021/05/12 01:41:41;;;;;;;21.85;13.10;;;14.60;82.40;;;;;;5036787;28;20051;-91
2021/05/12 01:44:10;;;;;;;19.70;13.32;;;14.60;82.30;;;;;;5047181;28;20093;-91
2021/05/12 01:46:38;;;;;;;15.68;12.45;;;14.60;82.40;;;;;;5051996;28;20036;-92
2021/05/12 01:49:04;;;;;;;13.35;11.95;;;14.50;82.60;;;;;;5056242;28;20386;-92
2021/05/12 01:51:30;;;;;;;13.93;12.45;;;14.40;82.70;;;;;;5042106;28;20508;-92
2021/05/12 01:53:56;;;;;;;17.13;12.75;;;14.40;83.40;;;;;;5055872;28;20037;-94
2021/05/12 01:56:21;;;;;;;19.65;12.77;;;14.30;83.80;;;;;;5062373;28;20108;-92
2021/05/12 01:58:47;;;;;;;23.13;14.65;;;14.20;84.10;;;;;;5061436;28;20052;-89
2021/05/12 02:01:13;;;;;;;24.30;13.95;;;14.20;84.20;;;;;;5054748;28;20021;-89
2021/05/12 02:03:39;;;;;;;22.60;13.73;;;14.20;84.10;;;;;;5064247;28;20029;-88
2021/05/12 02:06:05;;;;;;;22.63;14.13;;;14.20;84.30;;;;;;5053803;28;20016;-88
2021/05/12 02:08:31;;;;;;;15.48;12.18;;;14.20;84.40;;;;;;5061139;28;20029;-88
2021/05/12 02:10:59;;;;;;;16.27;11.13;;;14.10;84.40;;;;;;5053496;28;20060;-90
2021/05/12 02:13:26;;;;;;;13.27;10.85;;;14.10;84.30;;;;;;5061695;28;20028;-90
2021/05/12 02:15:53;;;;;;;19.13;11.40;;;14.10;84.30;;;;;;5074034;28;20029;-88
2021/05/12 02:18:19;;;;;;;15.80;10.45;;;14.00;85.00;;;;;;5078136;28;20278;-94
2021/05/12 02:20:45;;;;;;;20.52;11.55;;;13.90;84.20;;;;;;5054699;28;20096;-92
2021/05/12 02:23:13;;;;;;;15.02;10.60;;;14.00;84.40;;;;;;5060225;28;20071;-92
2021/05/12 02:25:40;;;;;;;16.33;10.88;;;14.10;84.30;;;;;;5060564;28;20545;-92
2021/05/12 02:28:09;;;;;;;14.45;10.55;;;14.10;84.00;;;;;;5061725;28;20093;-90
2021/05/12 02:30:36;;;;;;;16.70;10.77;;;14.20;83.60;;;;;;5048710;28;20060;-92
2021/05/12 02:33:03;;;;;;;16.60;9.50;;;14.30;83.20;;;;;;5063090;28;20021;-91
2021/05/12 02:35:29;;;;;;;16.38;9.07;;;14.40;82.50;;;;;;5061742;28;20418;-92
2021/05/12 02:37:55;;;;;;;16.75;9.70;;;14.40;82.00;;;;;;5067529;28;20029;-91
2021/05/12 02:40:22;;;;;;;12.70;8.93;;;14.50;81.80;;;;;;5053053;28;20032;-92
2021/05/12 02:42:50;;;;;;;15.82;9.50;;;14.60;81.50;;;;;;5059917;28;20017;-91
2021/05/12 02:45:18;;;;;;;14.38;8.52;;;14.70;80.80;;;;;;5044813;28;20036;-92
2021/05/12 02:48:00;;;;;;;11.85;8.27;;;14.70;80.40;;;;;;5049366;28;20026;-94
2021/05/12 02:50:34;;;;;;;13.48;8.50;;;14.70;80.30;;;;;;5044395;28;20379;-91
2021/05/12 02:53:01;;;;;;;12.35;8.32;;;14.70;80.10;;;;;;5062363;28;20025;-91
2021/05/12 02:55:27;;;;;;;10.73;7.28;;;14.70;79.90;;;;;;5058577;28;20545;-92
2021/05/12 02:57:54;;;;;;;11.60;8.10;;;14.70;80.00;;;;;;5059114;28;20528;-92
2021/05/12 03:00:23;;;;;;;9.88;7.75;;;14.80;79.70;;;;;;5058415;28;20022;-90
2021/05/12 03:02:49;;;;;;;13.68;7.82;;;14.80;79.20;;;;;;5042961;28;20389;-93
2021/05/12 03:05:15;;;;;;;13.48;8.10;;;14.80;79.10;;;;;;5074403;28;20025;-90
2021/05/12 03:07:42;;;;;;;18.52;7.68;;;14.90;79.10;;;;;;5052267;28;20030;-90
2021/05/12 03:10:12;;;;;;;8.10;7.30;;;14.90;78.80;;;;;;5063844;28;20037;-93
2021/05/12 03:12:38;;;;;;;12.70;8.00;;;14.90;78.90;;;;;;5070610;28;20017;-93
2021/05/12 03:15:07;;;;;;;9.93;7.63;;;15.10;78.60;;;;;;5036519;28;20033;-92
2021/05/12 03:17:36;;;;;;;10.25;7.50;;;15.20;78.00;;;;;;5074352;28;20029;-92
2021/05/12 03:20:04;;;;;;;12.77;9.20;;;15.30;77.60;;;;;;5061819;28;20028;-92
2021/05/12 03:22:30;;;;;;;;;;;15.30;77.40;;;;;;5060381;28;20103;-93
2021/05/12 03:24:55;;;;;;;8.23;6.80;;;15.30;77.00;;;;;;5058854;28;19960;-92
2021/05/12 03:27:21;;;;;;;12.88;6.75;;;15.30;77.00;;;;;;5058475;28;20537;-93
2021/05/12 03:29:50;;;;;;;11.60;7.32;;;15.20;77.00;;;;;;5045728;28;20036;-93
2021/05/12 03:32:16;;;;;;;14.55;7.38;;;15.10;77.20;;;;;;5055306;28;20028;-92
2021/05/12 03:34:42;;;;;;;10.77;7.65;;;15.10;77.30;;;;;;5072957;28;20028;-88
2021/05/12 03:37:07;;;;;;;10.32;7.38;;;15.20;77.30;;;;;;5038346;28;20033;-89
2021/05/12 03:39:33;;;;;;;11.38;6.65;;;15.30;77.10;;;;;;5052413;28;20032;-89
2021/05/12 03:41:59;;;;;;;10.75;7.35;;;15.50;76.30;;;;;;5057460;28;20478;-88
2021/05/12 03:44:25;;;;;;;11.32;7.30;;;15.60;76.10;;;;;;5057697;28;20088;-89
2021/05/12 03:46:51;;;;;;;10.73;7.50;;;15.60;75.60;;;;;;5042968;28;20021;-88
2021/05/12 03:49:16;;;;;;;9.63;6.75;;;15.70;75.40;;;;;;5057726;28;20083;-90
2021/05/12 03:51:43;;;;;;;7.95;6.57;;;15.80;75.10;;;;;;5057946;28;20032;-91
2021/05/12 03:54:09;;;;;;;12.27;6.47;;;15.80;74.70;;;;;;5060903;28;20032;-93
2021/05/12 03:56:34;;;;;;;10.60;7.05;;;15.90;74.40;;;;;;5058755;28;20024;-94
2021/05/12 03:59:00;;;;;;;10.75;6.80;;;15.80;74.20;;;;;;5046372;28;20108;-92
2021/05/12 04:01:26;;;;;;;12.98;7.43;;;15.80;74.10;;;;;;5060019;28;20017;-94
2021/05/12 04:03:52;;;;;;;11.23;7.30;;;15.80;74.40;;;;;;5065425;28;20440;-91
2021/05/12 04:06:18;;;;;;;10.63;6.93;;;15.90;74.30;;;;;;5065221;28;20025;-91
2021/05/12 04:08:43;;;;;;;12.68;8.10;;;16.00;74.40;;;;;;5060824;28;20044;-91
2021/05/12 04:11:10;;;;;;;13.25;7.70;;;16.00;73.70;;;;;;5050656;28;20025;-90
2021/05/12 04:13:36;;;;;;;9.75;7.90;;;16.10;73.80;;;;;;5050720;28;20025;-92
2021/05/12 04:16:03;;;;;;;12.90;7.45;;;16.00;73.60;;;;;;5038546;28;20033;-93
2021/05/12 04:18:28;;;;;;;14.82;7.70;;;15.90;73.50;;;;;;5038772;28;20017;-92
2021/05/12 04:20:54;;;;;;;17.20;7.13;;;15.80;73.80;;;;;;5056942;28;20483;-89
2021/05/12 04:23:20;;;;;;;10.65;6.55;;;15.70;74.10;;;;;;5049546;28;20029;-92
2021/05/12 04:25:46;;;;;;;8.35;7.50;;;15.60;74.10;;;;;;5057646;28;20043;-92
2021/05/12 04:28:11;;;;;;;9.13;6.20;;;15.60;74.10;;;;;;5043159;28;20025;-92
2021/05/12 04:30:37;;;;;;;8.98;7.22;;;15.50;74.10;;;;;;5063990;28;20040;-92
2021/05/12 04:33:04;;;;;;;12.85;7.00;;;15.50;74.10;;;;;;5055667;28;20022;-91
2021/05/12 04:35:30;;;;;;;16.85;8.32;;;15.50;74.00;;;;;;5048701;28;20018;-92
2021/05/12 04:37:56;;;;;;;17.20;8.90;;;15.50;74.20;;;;;;5069971;28;20040;-90
2021/05/12 04:40:24;;;;;;;9.50;7.28;;;15.50;74.40;;;;;;5052723;28;20041;-90
2021/05/12 04:42:50;;;;;;;9.70;7.25;;;15.50;74.50;;;;;;5045860;28;20025;-92
2021/05/12 04:45:18;;;;;;;12.93;7.03;;;15.50;74.40;;;;;;5053599;28;20067;-92
2021/05/12 04:47:54;;;;;;;13.98;8.20;;;15.40;74.40;;;;;;5032781;28;20036;-91
2021/05/12 04:50:25;;;;;;;11.83;8.20;;;15.40;74.50;;;;;;5058998;28;20127;-91
2021/05/12 04:52:51;;;;;;;12.23;7.78;;;15.40;74.70;;;;;;5062830;28;20021;-91
2021/05/12 04:55:17;;;;;;;16.70;8.18;;;15.40;74.80;;;;;;5059032;28;20028;-94
2021/05/12 04:57:43;;;;;;;11.35;8.50;;;15.40;75.00;;;;;;5058585;28;20056;-93
2021/05/12 05:00:12;;;;;;;14.43;8.13;;;15.50;75.00;;;;;;5045942;28;20416;-93
2021/05/12 05:02:38;;;;;;;11.23;8.25;;;15.60;74.80;;;;;;5070689;28;20015;-90
2021/05/12 05:05:06;;;;;;;15.75;9.20;;;15.70;74.30;;;;;;5061854;28;20022;-92
2021/05/12 05:07:32;;;;;;;17.10;10.63;;;15.90;74.30;;;;;;5053867;28;20077;-92
2021/05/12 05:10:01;;;;;;;13.02;7.78;;;16.00;73.60;;;;;;5048353;28;20032;-92
2021/05/12 05:12:27;;;;;;;15.95;10.13;;;16.20;73.30;;;;;;5052828;28;20037;-94
2021/05/12 05:14:53;;;;;;;16.40;9.35;;;16.30;72.70;;;;;;5050880;28;20033;-93
2021/05/12 05:17:19;;;;;;;14.20;9.00;;;16.40;72.50;;;;;;5076321;28;20043;-92
2021/05/12 05:19:45;;;;;;;17.77;10.40;;;16.50;72.20;;;;;;5066025;28;20079;-92
2021/05/12 05:22:11;;;;;;;14.15;9.00;;;16.60;71.70;;;;;;5040165;28;20052;-90
2021/05/12 05:24:38;;;;;;;12.37;9.47;;;16.70;71.40;;;;;;5036384;28;20121;-93
2021/05/12 05:27:05;;;;;;;19.90;9.90;;;16.80;71.20;;;;;;5035924;28;20317;-91
2021/05/12 05:29:31;;;;;;;15.55;8.13;;;16.90;71.20;;;;;;5068272;28;20041;-92
2021/05/12 05:31:57;;;;;;;13.63;9.15;;;16.80;71.10;;;;;;5066012;28;20044;-91
2021/05/12 05:34:23;;;;;;;18.42;10.27;;;16.80;70.50;;;;;;5068552;28;20056;-91
2021/05/12 05:36:48;;;;;;;13.38;9.23;;;16.90;70.20;;;;;;5050872;28;20176;-91
2021/05/12 05:39:14;;;;;;;14.32;9.05;;;16.80;69.90;;;;;;5056333;28;20039;-91
2021/05/12 05:41:40;;;;;;;13.00;8.35;;;16.80;70.00;;;;;;5064175;28;20029;-90
2021/05/12 05:44:06;;;;;;;17.50;9.73;;;16.80;70.10;;;;;;5061205;28;20025;-91
2021/05/12 05:46:31;;;;;;;19.00;9.90;;;16.70;70.30;;;;;;5062861;28;20021;-91
2021/05/12 05:48:57;;;;;;;12.82;8.32;;;16.70;70.50;;;;;;5064703;28;20032;-92
2021/05/12 05:51:23;;;;;;;13.70;8.52;;;16.70;70.40;;;;;;5060422;28;20047;-91
2021/05/12 05:53:49;;;;;;;16.10;10.75;;;16.60;70.70;;;;;;5058824;28;20017;-89
2021/05/12 05:56:15;;;;;;;14.48;9.73;;;16.60;71.00;;;;;;5048514;28;20030;-88
2021/05/12 05:58:41;;;;;;;19.45;10.82;;;16.50;71.10;;;;;;5061458;28;20025;-92
2021/05/12 06:01:07;;;;;;;20.35;10.95;;;16.40;71.60;;;;;;5043295;28;20031;-92
2021/05/12 06:03:33;;;;;;;14.38;10.52;;;16.40;72.10;;;;;;5064030;28;20044;-91
2021/05/12 06:06:00;;;;;;;18.38;11.35;;;16.30;72.40;;;;;;5051783;28;20048;-90
2021/05/12 06:08:26;;;;;;;18.55;11.25;;;16.20;72.80;;;;;;5073713;28;20024;-92
2021/05/12 06:10:51;;;;;;;23.20;13.73;;;16.20;73.10;;;;;;5066390;28;20041;-92
2021/05/12 06:13:17;;;;;;;24.33;14.70;;;16.30;73.60;;;;;;5064379;28;20021;-91
2021/05/12 06:15:43;;;;;;;23.27;13.73;;;16.30;73.70;;;;;;5061080;28;20484;-92
2021/05/12 06:18:09;;;;;;;24.02;13.85;;;16.30;73.80;;;;;;5062107;28;20025;-90
2021/05/12 06:20:37;;;;;;;26.95;14.63;;;16.30;73.90;;;;;;5041393;28;20029;-91
2021/05/12 06:23:07;;;;;;;25.35;15.10;;;16.30;74.20;;;;;;5064597;28;20021;-93
2021/05/12 06:25:40;;;;;;;25.85;15.25;;;16.30;74.70;;;;;;5034494;28;20129;-90
2021/05/12 06:28:05;;;;;;;19.63;15.20;;;16.20;74.70;;;;;;5046425;28;20048;-90
2021/05/12 06:30:31;;;;;;;23.13;15.55;;;16.20;75.00;;;;;;5059987;28;20029;-89
2021/05/12 06:33:11;;;;;;;28.23;16.23;;;16.10;75.40;;;;;;5044598;28;20090;-92
2021/05/12 06:35:37;;;;;;;27.40;16.63;;;16.20;76.00;;;;;;5042936;28;20047;-91
2021/05/12 06:38:02;;;;;;;28.38;17.13;;;16.20;75.80;;;;;;5047286;28;20546;-88
2021/05/12 06:40:28;;;;;;;29.23;17.23;;;16.30;75.70;;;;;;5044980;28;20028;-89
2021/05/12 06:42:57;;;;;;;30.00;17.80;;;16.30;75.60;;;;;;5032177;28;20083;-88
2021/05/12 06:45:23;;;;;;;24.60;16.65;;;16.40;75.60;;;;;;5052217;28;20055;-87
2021/05/12 06:47:53;;;;;;;28.02;18.33;;;16.40;75.30;;;;;;5042906;28;20029;-90
2021/05/12 06:50:22;;;;;;;32.22;18.10;;;16.40;75.20;;;;;;5063070;28;20029;-90
2021/05/12 06:52:55;;;;;;;33.35;17.30;;;16.50;75.50;;;;;;5063902;28;20017;-92
2021/05/12 06:55:23;;;;;;;27.17;19.00;;;16.50;75.20;;;;;;5059298;28;20017;-92
2021/05/12 06:57:52;;;;;;;36.08;19.02;;;16.50;74.90;;;;;;5043307;28;20025;-92
2021/05/12 07:00:19;;;;;;;28.50;19.10;;;16.50;74.70;;;;;;5028296;28;20055;-90
2021/05/12 07:02:45;;;;;;;;;;;16.40;74.70;;;;;;5049347;28;20054;-93
2021/05/12 07:05:14;;;;;;;36.63;18.13;;;16.40;74.40;;;;;;5066230;28;19932;-90
2021/05/12 07:07:41;;;;;;;28.27;18.55;;;16.30;75.30;;;;;;5064123;28;20021;-91
2021/05/12 07:10:10;;;;;;;29.92;17.58;;;16.40;75.70;;;;;;5043608;28;20053;-93
2021/05/12 07:12:36;;;;;;;34.17;18.90;;;16.50;75.20;;;;;;5048297;28;20021;-93
2021/05/12 07:15:08;;;;;;;32.88;19.27;;;16.60;75.10;;;;;;5051751;28;20051;-91
2021/05/12 07:17:34;;;;;;;32.20;18.20;;;16.70;74.70;;;;;;5041178;28;20041;-89
2021/05/12 07:20:00;;;;;;;42.28;20.00;;;16.80;74.30;;;;;;5078035;28;20021;-88
2021/05/12 07:22:26;;;;;;;29.52;19.48;;;17.00;74.20;;;;;;5060025;28;20059;-90
2021/05/12 07:24:52;;;;;;;32.85;20.45;;;17.10;73.20;;;;;;5072171;28;20125;-92
2021/05/12 07:27:19;;;;;;;31.88;19.40;;;17.20;73.00;;;;;;5052791;28;20025;-91
2021/05/12 07:29:45;;;;;;;31.25;20.80;;;17.30;72.70;;;;;;5046825;28;20071;-87
2021/05/12 07:32:11;;;;;;;32.25;20.50;;;17.40;72.30;;;;;;5052494;28;20025;-90
2021/05/12 07:34:37;;;;;;;30.38;21.23;;;17.40;71.50;;;;;;5057353;28;20058;-92
2021/05/12 07:37:03;;;;;;;29.75;21.88;;;17.50;71.40;;;;;;5057079;28;20037;-91
2021/05/12 07:39:31;;;;;;;29.27;19.85;;;17.50;71.70;;;;;;5017970;28;20124;-92
2021/05/12 07:41:59;;;;;;;;;;;17.50;71.50;;;;;;5040318;28;20500;-91
2021/05/12 07:44:30;;;;;;;32.25;20.92;;;17.50;71.10;;;;;;5020968;28;20295;-92
2021/05/12 07:46:57;;;;;;;33.13;20.67;;;17.40;71.30;;;;;;4989341;28;20029;-92
2021/05/12 07:49:23;;;;;;;;;;;17.60;71.10;;;;;;5020708;28;20124;-92
2021/05/12 07:51:54;;;;;;;29.77;19.98;;;17.60;70.70;;;;;;5018643;28;19930;-88
2021/05/12 07:54:22;;;;;;;31.95;18.95;;;17.70;70.20;;;;;;5015747;28;20041;-91
2021/05/12 07:56:48;;;;;;;;;;;17.80;69.50;;;;;;5017659;28;20048;-88
2021/05/12 07:59:16;;;;;;;35.03;20.10;;;17.90;69.50;;;;;;5034011;28;19933;-92
2021/05/12 08:01:44;;;;;;;25.08;18.17;;;18.00;68.90;;;;;;5005527;28;20401;-91
2021/05/12 08:04:11;;;;;;;27.38;19.40;;;18.10;68.40;;;;;;5018334;28;20091;-92
2021/05/12 08:06:37;;;;;;;26.63;19.30;;;18.30;67.80;;;;;;5006400;28;20415;-92
2021/05/12 08:09:05;;;;;;;37.25;19.92;;;18.40;66.80;;;;;;5022944;28;20042;-91
2021/05/12 08:11:31;;;;;;;28.63;17.48;;;18.50;66.50;;;;;;5004300;28;20426;-89
2021/05/12 08:14:09;;;;;;;24.42;19.17;;;18.80;65.70;;;;;;5025268;28;20059;-94
2021/05/12 08:16:34;;;;;;;;;;;19.20;64.70;;;;;;5040085;28;20036;-91
2021/05/12 08:19:01;;;;;;;25.67;17.88;;;19.50;64.80;;;;;;5038277;28;20003;-93
2021/05/12 08:21:26;;;;;;;27.00;19.02;;;19.70;62.90;;;;;;5057520;28;20021;-91
2021/05/12 08:23:54;;;;;;;25.52;17.75;;;20.00;62.30;;;;;;5059997;28;20048;-91
2021/05/12 08:26:20;;;;;;;24.73;18.50;;;20.30;61.50;;;;;;5063082;28;20183;-92
2021/05/12 08:28:46;;;;;;;28.38;17.48;;;20.30;60.70;;;;;;5058992;28;20060;-92
2021/05/12 08:31:15;;;;;;;31.10;19.27;;;20.30;60.60;;;;;;5052567;28;20491;-90
2021/05/12 08:33:42;;;;;;;28.65;18.27;;;20.20;60.40;;;;;;5032393;28;20037;-92
2021/05/12 08:36:30;;;;;;;30.13;20.55;;;20.20;60.40;;;;;;5058335;28;20070;-93
2021/05/12 08:38:58;;;;;;;26.88;19.30;;;20.40;60.60;;;;;;5047101;28;20112;-91
2021/05/12 08:41:23;;;;;;;33.77;19.77;;;20.40;60.40;;;;;;5042708;28;20033;-92
2021/05/12 08:43:52;;;;;;;23.80;18.70;;;20.40;60.00;;;;;;5033971;28;20285;-91
2021/05/12 08:46:19;;;;;;;29.77;18.95;;;20.30;60.10;;;;;;5062838;28;20036;-93
2021/05/12 08:48:46;;;;;;;;;;;20.20;60.20;;;;;;5041591;28;20028;-88
2021/05/12 08:51:13;;;;;;;29.35;19.23;;;20.20;60.80;;;;;;5039798;28;20004;-91
2021/05/12 08:53:39;;;;;;;33.40;20.50;;;20.30;60.70;;;;;;5058764;28;20082;-91
2021/05/12 08:56:09;;;;;;;32.15;20.17;;;20.60;60.20;;;;;;5062010;28;20021;-92
2021/05/12 08:58:35;;;;;;;25.08;19.58;;;21.10;58.90;;;;;;5031119;28;20037;-91
2021/05/12 09:01:01;;;;;;;30.97;21.53;;;21.50;57.90;;;;;;5021309;28;20119;-89
2021/05/12 09:03:28;;;;;;;26.80;20.42;;;21.80;56.70;;;;;;5052913;28;20020;-91
2021/05/12 09:05:57;;;;;;;22.63;19.05;;;22.20;55.90;;;;;;5046973;28;20071;-91
2021/05/12 09:08:26;;;;;;;28.33;20.10;;;22.70;54.80;;;;;;5058975;28;20025;-92
2021/05/12 09:10:56;;;;;;;31.75;17.83;;;23.80;52.90;;;;;;5038529;28;20033;-91
2021/05/12 09:13:41;;;;;;;26.58;19.77;;;25.40;50.00;;;;;;5035555;28;20033;-90
2021/05/12 09:16:26;;;;;;;23.65;19.65;;;26.90;47.60;;;;;;4992757;28;20038;-91
2021/05/12 09:19:00;;;;;;;20.50;18.37;;;27.20;44.50;;;;;;5011145;28;20034;-90
2021/05/12 09:21:42;;;;;;;24.55;19.75;;;27.50;43.50;;;;;;4992593;28;20027;-92
2021/05/12 09:24:30;;;;;;;28.30;19.17;;;28.30;42.70;;;;;;5000367;28;20026;-90
2021/05/12 09:27:05;;;;;;;24.02;19.33;;;29.20;41.60;;;;;;5000964;28;20134;-91
2021/05/12 09:29:39;;;;;;;24.17;17.95;;;30.10;40.00;;;;;;5007212;28;20094;-90
2021/05/12 09:32:08;;;;;;;23.88;17.10;;;30.30;38.60;;;;;;5013479;28;20085;-91
2021/05/12 09:35:05;;;;;;;25.60;16.27;;;30.30;38.10;;;;;;5018679;28;20037;-90
2021/05/12 09:37:35;;;;;;;21.10;16.33;;;30.50;38.70;;;;;;5024702;28;20060;-90
2021/05/12 09:40:18;;;;;;;16.80;15.02;;;29.80;38.40;;;;;;5019465;28;20033;-91
2021/05/12 09:42:54;;;;;;;17.73;14.15;;;28.70;40.00;;;;;;5036240;28;20068;-90
2021/05/12 09:45:24;;;;;;;19.80;13.45;;;28.10;41.00;;;;;;5024660;28;20017;-93
2021/05/12 09:47:54;;;;;;;17.05;13.95;;;28.00;41.50;;;;;;5043381;28;20067;-94
2021/05/12 09:50:30;;;;;;;14.00;12.60;;;28.60;40.90;;;;;;5045315;28;20107;-92
2021/05/12 09:52:58;;;;;;;17.60;12.52;;;29.20;39.70;;;;;;5057092;28;20032;-89
2021/05/12 09:55:42;;;;;;;19.55;12.57;;;29.40;39.30;;;;;;5064033;28;20041;-93
2021/05/12 09:58:11;;;;;;;16.52;12.60;;;29.40;39.50;;;;;;5037756;28;20429;-90
2021/05/12 10:00:51;;;;;;;16.83;13.68;;;29.50;39.10;;;;;;5045682;28;20021;-92
2021/05/12 10:03:23;;;;;;;21.70;14.18;;;30.00;39.10;;;;;;5049017;28;20128;-90
2021/05/12 10:05:56;;;;;;;20.52;14.52;;;30.60;38.10;;;;;;5047217;28;20084;-92
2021/05/12 10:08:36;;;;;;;22.80;14.68;;;31.30;37.10;;;;;;5061872;28;20036;-92
2021/05/12 10:11:07;;;;;;;19.88;12.63;;;31.60;36.70;;;;;;4977232;28;20559;-92
2021/05/12 10:13:35;;;;;;;17.35;12.77;;;32.20;36.10;;;;;;4991686;28;20039;-91
2021/05/12 10:16:05;;;;;;;18.98;12.75;;;32.50;35.40;;;;;;4969222;28;20127;-89
2021/05/12 10:18:31;;;;;;;14.98;13.57;;;32.40;35.30;;;;;;4998268;28;20041;-92
2021/05/12 10:20:58;;;;;;;14.35;12.13;;;31.60;35.40;;;;;;5004028;28;20034;-89
2021/05/12 10:23:24;;;;;;;;;;;30.50;37.20;;;;;;5005278;28;20431;-89
2021/05/12 10:25:51;;;;;;;20.83;14.43;;;29.50;38.50;;;;;;5009270;28;19960;-91
2021/05/12 10:28:18;;;;;;;15.68;13.68;;;28.70;39.90;;;;;;5010670;28;20026;-90
2021/05/12 10:30:48;;;;;;;19.77;14.80;;;28.00;40.80;;;;;;5008822;28;20070;-90
2021/05/12 10:33:15;;;;;;;19.42;14.00;;;27.50;42.10;;;;;;4992558;28;20369;-89
2021/05/12 10:35:42;;;;;;;20.75;13.30;;;27.00;43.10;;;;;;5001707;28;20040;-90
2021/05/12 10:38:28;;;;;;;14.32;12.07;;;26.70;44.10;;;;;;4983602;28;20089;-92
2021/05/12 10:40:54;;;;;;;18.77;13.05;;;26.10;45.10;;;;;;5005214;28;20128;-91
2021/05/12 10:43:30;;;;;;;16.63;13.50;;;25.80;46.00;;;;;;5029356;28;20037;-90
2021/05/12 10:46:05;;;;;;;18.45;13.68;;;25.80;46.10;;;;;;5043303;28;20039;-90
2021/05/12 10:48:53;;;;;;;15.48;12.75;;;26.00;46.30;;;;;;5075845;28;20297;-88
2021/05/12 10:51:23;;;;;;;16.35;12.48;;;26.00;45.80;;;;;;5075971;28;20033;-91
2021/05/12 10:53:50;;;;;;;18.52;12.27;;;25.80;45.90;;;;;;5068966;28;20013;-90
2021/05/12 10:56:20;;;;;;;18.92;12.73;;;25.80;46.50;;;;;;5068010;28;20080;-92
2021/05/12 10:59:00;;;;;;;22.73;14.07;;;25.60;46.10;;;;;;5066207;28;20061;-90
2021/05/12 11:01:33;;;;;;;13.82;10.40;;;25.60;46.30;;;;;;5032359;28;20083;-91
2021/05/12 11:03:58;;;;;;;15.02;10.57;;;25.80;45.70;;;;;;5043165;28;20029;-92
2021/05/12 11:06:44;;;;;;;11.77;10.07;;;25.80;45.10;;;;;;5034544;28;20077;-91
2021/05/12 11:09:17;;;;;;;16.20;9.63;;;25.90;45.50;;;;;;5014967;28;20033;-94
2021/05/12 11:12:04;;;;;;;12.90;9.82;;;26.00;44.90;;;;;;5063229;28;20258;-90
2021/05/12 11:14:32;;;;;;;12.77;10.30;;;26.00;45.00;;;;;;4946987;29;20110;-91
2021/05/12 11:17:02;;;;;;;12.15;8.48;;;25.90;44.30;;;;;;4954157;29;20162;-89
2021/05/12 11:19:45;;;;;;;16.48;8.75;;;25.80;44.20;;;;;;4940680;29;20027;-90
2021/05/12 11:33:25;;;;;;;11.23;6.65;;;25.70;42.70;;;;;;4944770;29;20059;-90
2021/05/12 11:36:15;;;;;;;12.02;6.95;;;25.80;41.80;;;;;;4950131;29;20083;-92
2021/05/12 11:38:41;;;;;;;15.85;6.90;;;25.80;40.90;;;;;;4941865;29;20048;-90
2021/05/12 11:41:17;;;;;;;8.05;5.68;;;25.80;40.80;;;;;;4935512;29;20031;-91
2021/05/12 11:44:00;;;;;;;19.67;8.70;;;25.90;40.70;;;;;;4944844;29;20036;-91
2021/05/12 11:46:35;;;;;;;10.52;6.03;;;25.80;40.80;;;;;;4938442;29;20031;-90
2021/05/12 11:49:03;;;;;;;9.50;6.13;;;25.70;40.90;;;;;;4938917;29;20035;-92
2021/05/12 11:51:31;;;;;;;14.38;6.75;;;25.60;41.10;;;;;;4996699;28;20424;-88
2021/05/12 11:53:58;;;;;;;14.20;7.07;;;25.70;41.10;;;;;;5040992;28;20029;-91
2021/05/12 11:56:25;;;;;;;12.15;6.25;;;25.60;41.20;;;;;;5042085;28;20029;-88
2021/05/12 11:59:01;;;;;;;11.82;6.90;;;25.50;41.10;;;;;;5041761;28;20057;-90
2021/05/12 12:01:29;;;;;;;14.27;7.32;;;25.30;41.90;;;;;;5040617;28;20025;-90
2021/05/12 12:04:19;;;;;;;9.60;6.07;;;25.30;41.90;;;;;;5057321;28;20045;-90
2021/05/12 12:06:46;;;;;;;11.55;6.80;;;25.20;41.70;;;;;;5062302;28;20036;-90
2021/05/12 12:09:13;;;;;;;9.25;6.53;;;24.60;44.10;;;;;;5041956;28;20029;-92
2021/05/12 12:11:40;;;;;;;18.77;11.80;;;23.30;50.70;;;;;;5061985;28;20515;-92
2021/05/12 12:14:10;;;;;;;19.10;13.60;;;21.50;56.60;;;;;;5063195;28;20028;-89
2021/05/12 12:16:39;;;;;;;21.35;13.23;;;19.90;61.90;;;;;;5031322;28;20021;-90
2021/05/12 12:19:12;;;;;;;15.32;11.93;;;19.30;69.40;;;;;;5039586;28;20025;-87
2021/05/12 12:21:41;;;;;;;21.92;13.23;;;19.20;67.80;;;;;;5031767;28;20018;-89
2021/05/12 12:24:14;;;;;;;21.13;14.60;;;19.20;66.60;;;;;;5052448;28;20022;-90
2021/05/12 12:26:47;;;;;;;24.15;15.27;;;19.60;66.50;;;;;;5045486;28;20408;-90
2021/05/12 12:29:14;;;;;;;20.45;15.25;;;20.20;65.00;;;;;;5061423;28;20046;-92
2021/05/12 12:31:46;;;;;;;25.42;16.83;;;20.60;61.90;;;;;;5063533;28;20468;-89
2021/05/12 12:34:36;;;;;;;21.77;16.38;;;21.00;63.20;;;;;;5045925;28;20037;-92
2021/05/12 12:37:04;;;;;;;17.85;14.30;;;21.20;59.90;;;;;;5045851;28;20025;-90
2021/05/12 12:39:46;;;;;;;17.83;15.63;;;21.20;57.60;;;;;;5033735;28;20402;-90
2021/05/12 12:42:13;;;;;;;18.20;14.98;;;21.40;57.30;;;;;;5032518;28;20114;-91
2021/05/12 12:44:42;;;;;;;22.50;16.40;;;21.30;58.60;;;;;;5057627;28;20017;-90
2021/05/12 12:47:17;;;;;;;16.45;13.52;;;21.10;60.30;;;;;;5040637;28;20398;-89
2021/05/12 12:49:59;;;;;;;18.67;14.30;;;21.10;59.60;;;;;;5039896;28;20063;-89
2021/05/12 12:52:29;;;;;;;15.25;12.85;;;21.20;59.70;;;;;;5008772;28;20033;-92
2021/05/12 12:55:05;;;;;;;16.45;11.82;;;21.40;59.10;;;;;;5043568;28;20026;-88